createdAt,value
2018-09-15T00:00:25.224Z,14.27
2018-09-15T00:02:29.558Z,15.00
2018-09-15T00:04:34.224Z,13.37
2018-09-15T00:06:38.234Z,13.57
2018-09-15T00:08:42.550Z,12.43
2018-09-15T00:10:47.287Z,13.10
2018-09-15T00:12:51.337Z,11.00
2018-09-15T00:14:57.177Z,12.30
2018-09-15T00:17:01.194Z,11.83
2018-09-15T00:19:06.544Z,12.37
2018-09-15T00:21:11.489Z,15.93
2018-09-15T00:23:16.319Z,13.00
2018-09-15T00:25:20.503Z,11.03
2018-09-15T00:27:24.954Z,10.30
2018-09-15T00:29:29.079Z,11.80
2018-09-15T00:31:33.187Z,13.20
2018-09-15T00:33:37.249Z,14.33
2018-09-15T00:35:41.235Z,11.00
2018-09-15T00:37:45.264Z,14.60
2018-09-15T00:39:49.623Z,10.90
2018-09-15T00:41:53.783Z,12.47
2018-09-15T00:43:57.800Z,12.40
2018-09-15T00:46:01.781Z,10.00
2018-09-15T00:48:06.668Z,11.90
2018-09-15T00:50:10.632Z,11.00
2018-09-15T00:52:14.929Z,12.47
2018-09-15T00:54:18.957Z,11.40
2018-09-15T00:56:23.133Z,15.73
2018-09-15T00:58:28.474Z,15.17
2018-09-15T01:00:33.170Z,13.70
2018-09-15T01:02:37.396Z,9.93
2018-09-15T01:04:43.089Z,10.47
2018-09-15T01:06:47.066Z,10.30
2018-09-15T01:08:51.113Z,12.97
2018-09-15T01:10:56.444Z,10.60
2018-09-15T01:13:02.378Z,13.30
2018-09-15T01:15:06.432Z,13.20
2018-09-15T01:17:11.696Z,11.47
2018-09-15T01:19:15.684Z,12.47
2018-09-15T01:21:19.713Z,9.63
2018-09-15T01:23:25.318Z,15.83
2018-09-15T01:27:42.460Z,10.40
2018-09-15T01:29:46.464Z,15.17
2018-09-15T01:31:50.440Z,12.80
2018-09-15T01:33:55.065Z,12.30
2018-09-15T01:36:00.949Z,12.43
2018-09-15T01:38:04.936Z,9.17
2018-09-15T01:40:09.002Z,9.97
2018-09-15T01:42:14.008Z,10.97
2018-09-15T01:44:19.025Z,11.63
2018-09-15T01:46:23.025Z,11.63
2018-09-15T01:48:28.345Z,11.97
2018-09-15T01:50:33.089Z,10.27
2018-09-15T01:52:38.609Z,14.43
2018-09-15T01:54:44.260Z,11.37
2018-09-15T01:56:50.290Z,9.33
2018-09-15T01:58:55.824Z,7.17
2018-09-15T02:01:02.097Z,11.50
2018-09-15T02:03:07.585Z,10.60
2018-09-15T02:05:12.440Z,10.97
2018-09-15T02:07:20.665Z,13.00
2018-09-15T02:09:24.692Z,12.70
2018-09-15T02:11:28.756Z,11.80
2018-09-15T02:13:34.260Z,8.43
2018-09-15T02:15:38.242Z,8.97
2018-09-15T02:17:42.205Z,10.17
2018-09-15T02:19:46.556Z,10.93
2018-09-15T02:21:50.584Z,11.07
2018-09-15T02:23:55.782Z,14.07
2018-09-15T02:26:00.748Z,11.57
2018-09-15T02:28:06.188Z,11.60
2018-09-15T02:30:13.376Z,10.20
2018-09-15T02:32:18.832Z,12.27
2018-09-15T02:34:25.641Z,10.80
2018-09-15T02:36:30.646Z,10.07
2018-09-15T02:38:36.470Z,11.33
2018-09-15T02:40:41.015Z,10.30
2018-09-15T02:42:48.053Z,11.27
2018-09-15T02:44:55.418Z,10.17
2018-09-15T02:47:02.184Z,8.37
2018-09-15T02:49:06.204Z,10.00
2018-09-15T02:51:10.517Z,11.60
2018-09-15T02:53:14.469Z,13.20
2018-09-15T02:55:19.689Z,10.63
2018-09-15T02:57:28.550Z,9.90
2018-09-15T02:59:34.380Z,12.63
2018-09-15T03:01:40.218Z,14.10
2018-09-15T03:03:46.308Z,9.70
2018-09-15T03:05:50.392Z,10.80
2018-09-15T03:07:57.779Z,8.67
2018-09-15T03:10:01.742Z,11.60
2018-09-15T03:12:05.865Z,13.10
2018-09-15T03:14:12.772Z,12.93
2018-09-15T03:16:17.557Z,11.00
2018-09-15T03:18:22.561Z,11.67
2018-09-15T03:20:27.610Z,12.13
2018-09-15T03:22:32.517Z,13.27
2018-09-15T03:24:36.772Z,11.50
2018-09-15T03:26:41.970Z,10.83
2018-09-15T03:28:46.329Z,12.63
2018-09-15T03:30:51.335Z,10.87
2018-09-15T03:32:55.700Z,10.03
2018-09-15T03:35:01.502Z,13.70
2018-09-15T03:37:05.784Z,12.53
2018-09-15T03:39:12.203Z,10.27
2018-09-15T03:41:17.401Z,9.93
2018-09-15T03:43:21.329Z,10.93
2018-09-15T03:45:32.179Z,12.90
2018-09-15T03:47:36.150Z,14.63
2018-09-15T03:49:40.539Z,10.53
2018-09-15T03:51:48.126Z,9.07
2018-09-15T03:53:52.747Z,10.40
2018-09-15T03:55:57.556Z,11.10
2018-09-15T03:58:03.720Z,14.57
2018-09-15T04:00:07.773Z,10.63
2018-09-15T04:02:12.394Z,12.27
2018-09-15T04:04:17.348Z,11.73
2018-09-15T04:06:22.258Z,12.00
2018-09-15T04:08:26.196Z,9.37
2018-09-15T04:10:30.193Z,10.63
2018-09-15T04:12:35.438Z,13.07
2018-09-15T04:14:39.418Z,12.73
2018-09-15T04:16:46.299Z,12.07
2018-09-15T04:18:51.244Z,11.23
2018-09-15T04:20:55.835Z,9.83
2018-09-15T04:23:01.049Z,9.27
2018-09-15T04:25:05.076Z,10.50
2018-09-15T04:27:09.481Z,11.87
2018-09-15T04:29:14.017Z,10.53
2018-09-15T04:31:18.026Z,10.30
2018-09-15T04:33:22.550Z,11.60
2018-09-15T04:35:33.431Z,9.67
2018-09-15T04:37:38.520Z,10.50
2018-09-15T04:39:42.463Z,10.90
2018-09-15T04:41:47.634Z,13.97
2018-09-15T04:43:51.617Z,9.10
2018-09-15T04:45:56.196Z,9.27
2018-09-15T04:48:01.155Z,10.67
2018-09-15T04:50:05.313Z,11.93
2018-09-15T04:52:13.417Z,9.53
2018-09-15T04:54:17.668Z,12.53
2018-09-15T04:56:22.618Z,12.13
2018-09-15T04:58:26.671Z,9.40
2018-09-15T05:00:32.991Z,11.40
2018-09-15T05:02:38.066Z,12.60
2018-09-15T05:04:43.459Z,10.67
2018-09-15T05:06:52.461Z,8.47
2018-09-15T05:08:57.953Z,12.57
2018-09-15T05:11:01.973Z,9.20
2018-09-15T05:13:06.221Z,10.40
2018-09-15T05:15:13.339Z,8.83
2018-09-15T05:17:17.376Z,9.27
2018-09-15T05:19:22.061Z,10.67
2018-09-15T05:21:28.855Z,9.37
2018-09-15T05:23:33.099Z,9.00
2018-09-15T05:25:37.365Z,11.47
2018-09-15T05:27:41.288Z,10.70
2018-09-15T05:29:45.334Z,10.23
2018-09-15T05:31:53.688Z,13.47
2018-09-15T05:33:57.738Z,9.13
2018-09-15T05:36:01.681Z,14.67
2018-09-15T05:38:06.148Z,9.53
2018-09-15T05:40:10.222Z,8.20
2018-09-15T05:42:14.259Z,10.83
2018-09-15T05:44:22.625Z,8.37
2018-09-15T05:46:26.555Z,10.00
2018-09-15T05:48:31.218Z,9.50
2018-09-15T05:50:35.492Z,13.77
2018-09-15T05:52:42.228Z,8.97
2018-09-15T05:54:46.289Z,10.77
2018-09-15T05:56:50.853Z,11.50
2018-09-15T05:58:54.900Z,6.80
2018-09-15T06:00:59.604Z,10.23
2018-09-15T06:03:03.601Z,8.13
2018-09-15T06:05:07.889Z,10.13
2018-09-15T06:07:11.898Z,11.17
2018-09-15T06:09:16.208Z,8.23
2018-09-15T06:11:20.200Z,7.77
2018-09-15T06:13:30.678Z,9.63
2018-09-15T06:15:34.696Z,11.50
2018-09-15T06:17:38.767Z,11.27
2018-09-15T06:19:42.846Z,10.00
2018-09-15T06:21:47.221Z,10.47
2018-09-15T06:23:52.283Z,7.57
2018-09-15T06:25:56.441Z,11.23
2018-09-15T06:28:03.009Z,12.20
2018-09-15T06:30:07.873Z,8.67
2018-09-15T06:32:13.641Z,11.47
2018-09-15T06:34:21.716Z,7.97
2018-09-15T06:38:35.918Z,10.93
2018-09-15T06:40:40.841Z,7.93
2018-09-15T06:42:44.884Z,9.53
2018-09-15T06:44:48.933Z,12.80
2018-09-15T06:46:53.233Z,8.40
2018-09-15T06:49:00.930Z,7.37
2018-09-15T06:51:07.364Z,10.13
2018-09-15T06:53:13.951Z,11.93
2018-09-15T06:55:17.907Z,11.60
2018-09-15T06:57:21.946Z,12.50
2018-09-15T06:59:29.604Z,14.37
2018-09-15T07:01:34.810Z,13.23
2018-09-15T07:03:40.395Z,15.03
2018-09-15T07:05:50.233Z,16.47
2018-09-15T07:07:54.233Z,15.77
2018-09-15T07:10:02.350Z,11.20
2018-09-15T07:12:06.732Z,15.17
2018-09-15T07:14:11.969Z,12.07
2018-09-15T07:16:16.886Z,15.13
2018-09-15T07:18:21.297Z,14.50
2018-09-15T07:20:25.274Z,11.63
2018-09-15T07:22:30.017Z,12.67
2018-09-15T07:24:34.243Z,14.20
2018-09-15T07:26:38.294Z,14.43
2018-09-15T07:28:42.224Z,12.90
2018-09-15T07:30:47.237Z,9.77
2018-09-15T07:32:52.469Z,7.80
2018-09-15T07:34:56.588Z,11.37
2018-09-15T07:37:00.718Z,10.87
2018-09-15T07:39:08.413Z,12.57
2018-09-15T07:41:13.432Z,9.00
2018-09-15T07:43:23.730Z,8.47
2018-09-15T07:45:29.025Z,9.63
2018-09-15T07:47:33.613Z,10.93
2018-09-15T07:49:40.155Z,9.17
2018-09-15T07:51:44.365Z,7.10
2018-09-15T07:56:18.366Z,7.47
2018-09-15T07:58:31.870Z,7.90
2018-09-15T08:00:47.076Z,8.57
2018-09-15T08:02:53.041Z,9.93
2018-09-15T08:04:58.242Z,7.13
2018-09-15T08:07:04.060Z,5.03
2018-09-15T08:09:09.369Z,3.00
2018-09-15T08:11:14.378Z,3.73
2018-09-15T08:13:20.788Z,5.90
2018-09-15T08:15:28.462Z,6.57
2018-09-15T08:17:32.405Z,7.00
2018-09-15T08:19:39.344Z,4.37
2018-09-15T08:21:43.345Z,3.00
2018-09-15T08:23:48.854Z,4.27
2018-09-15T08:25:54.177Z,3.47
2018-09-15T08:27:59.709Z,3.00
2018-09-15T08:30:03.891Z,1.97
2018-09-15T08:32:09.336Z,3.40
2018-09-15T08:34:14.486Z,3.33
2018-09-15T08:36:19.511Z,1.70
2018-09-15T08:38:25.190Z,3.00
2018-09-15T08:40:29.309Z,1.77
2018-09-15T08:42:34.348Z,2.97
2018-09-15T08:44:41.743Z,4.60
2018-09-15T08:46:45.756Z,4.80
2018-09-15T08:48:50.964Z,4.43
2018-09-15T08:50:58.489Z,6.07
2018-09-15T08:53:04.318Z,2.80
2018-09-15T08:55:10.273Z,7.33
2018-09-15T08:57:14.243Z,2.70
2018-09-15T08:59:18.833Z,5.60
2018-09-15T09:01:23.603Z,5.10
2018-09-15T09:03:32.537Z,4.13
2018-09-15T09:05:37.440Z,4.77
2018-09-15T09:07:42.418Z,3.13
2018-09-15T09:09:46.511Z,4.07
2018-09-15T09:11:51.146Z,4.37
2018-09-15T09:13:55.121Z,2.90
2018-09-15T09:16:01.157Z,3.43
2018-09-15T09:18:06.579Z,2.20
2018-09-15T09:20:11.665Z,3.63
2018-09-15T09:22:15.627Z,3.53
2018-09-15T09:24:21.100Z,3.67
2018-09-15T09:26:26.574Z,5.53
2018-09-15T09:28:32.629Z,5.40
2018-09-15T09:30:36.827Z,4.53
2018-09-15T09:32:41.511Z,4.60
2018-09-15T09:34:45.601Z,3.63
2018-09-15T09:36:50.748Z,7.03
2018-09-15T09:38:55.653Z,3.73
2018-09-15T09:41:01.763Z,8.47
2018-09-15T09:43:06.513Z,3.97
2018-09-15T09:45:13.153Z,2.07
2018-09-15T09:47:17.182Z,1.40
2018-09-15T09:49:22.010Z,4.40
2018-09-15T09:51:26.273Z,3.10
2018-09-15T09:53:30.276Z,3.07
2018-09-15T09:55:36.942Z,2.77
2018-09-15T09:57:40.920Z,1.67
2018-09-15T09:59:44.971Z,2.23
2018-09-15T10:01:55.089Z,2.87
2018-09-15T10:04:00.856Z,2.60
2018-09-15T10:06:05.187Z,1.90
2018-09-15T10:08:09.308Z,5.63
2018-09-15T10:10:13.414Z,1.43
2018-09-15T10:12:17.436Z,2.77
2018-09-15T10:14:21.442Z,1.70
2018-09-15T10:16:25.936Z,2.90
2018-09-15T10:18:29.981Z,3.50
2018-09-15T10:20:35.892Z,2.97
2018-09-15T10:22:41.523Z,2.57
2018-09-15T10:24:46.393Z,1.60
2018-09-15T10:26:50.441Z,1.90
2018-09-15T10:28:55.791Z,1.63
2018-09-15T10:31:00.846Z,1.53
2018-09-15T10:33:08.737Z,3.40
2018-09-15T10:35:13.158Z,2.43
2018-09-15T10:37:17.792Z,1.53
2018-09-15T10:39:21.799Z,3.30
2018-09-15T10:41:26.185Z,1.37
2018-09-15T10:43:32.594Z,2.10
2018-09-15T10:45:36.577Z,2.10
2018-09-15T10:47:41.859Z,1.57
2018-09-15T10:49:46.689Z,1.83
2018-09-15T10:51:50.814Z,1.27
2018-09-15T10:53:54.804Z,3.27
2018-09-15T10:56:00.349Z,1.90
2018-09-15T10:58:05.389Z,1.23
2018-09-15T11:00:12.629Z,1.37
2018-09-15T11:02:17.429Z,2.00
2018-09-15T11:04:24.768Z,1.27
2018-09-15T11:06:35.775Z,1.70
2018-09-15T11:08:43.210Z,2.27
2018-09-15T11:10:48.250Z,1.47
2018-09-15T11:12:54.501Z,1.90
2018-09-15T11:15:01.631Z,1.57
2018-09-15T11:17:08.034Z,3.00
2018-09-15T11:19:12.462Z,1.10
2018-09-15T11:21:17.726Z,1.27
2018-09-15T11:23:21.739Z,2.13
2018-09-15T11:25:28.213Z,2.00
2018-09-15T11:27:32.510Z,1.17
2018-09-15T11:29:36.625Z,1.30
2018-09-15T11:31:44.159Z,1.53
2018-09-15T11:33:49.494Z,1.17
2018-09-15T11:35:54.233Z,0.97
2018-09-15T11:37:59.619Z,1.17
2018-09-15T11:40:06.498Z,1.70
2018-09-15T11:42:12.520Z,1.90
2018-09-15T11:44:19.209Z,1.17
2018-09-15T11:46:23.863Z,1.70
2018-09-15T11:48:29.195Z,2.40
2018-09-15T11:50:36.816Z,1.23
2018-09-15T11:52:42.833Z,1.00
2018-09-15T11:54:48.821Z,1.33
2018-09-15T11:56:54.760Z,1.00
2018-09-15T11:59:01.868Z,4.50
2018-09-15T12:01:08.510Z,2.63
2018-09-15T12:03:15.662Z,1.97
2018-09-15T12:05:19.807Z,1.47
2018-09-15T12:07:23.837Z,1.87
2018-09-15T12:09:30.205Z,2.23
2018-09-15T12:11:34.366Z,2.90
2018-09-15T12:13:38.346Z,3.10
2018-09-15T12:15:42.809Z,1.83
2018-09-15T12:17:47.752Z,1.07
2018-09-15T12:19:51.825Z,1.53
2018-09-15T12:21:58.214Z,1.30
2018-09-15T12:24:02.346Z,1.67
2018-09-15T12:26:07.216Z,2.37
2018-09-15T12:28:13.222Z,2.43
2018-09-15T12:30:17.195Z,0.97
2018-09-15T12:32:21.217Z,2.70
2018-09-15T12:34:25.639Z,2.00
2018-09-15T12:36:32.337Z,2.87
2018-09-15T12:38:36.559Z,1.53
2018-09-15T12:40:40.913Z,2.93
2018-09-15T12:42:45.708Z,2.30
2018-09-15T12:44:50.771Z,3.00
2018-09-15T12:46:54.729Z,1.23
2018-09-15T12:48:58.987Z,2.40
2018-09-15T12:51:02.979Z,1.30
2018-09-15T12:53:08.494Z,1.10
2018-09-15T12:55:12.552Z,2.30
2018-09-15T12:57:16.480Z,0.97
2018-09-15T12:59:21.580Z,1.73
2018-09-15T13:01:26.204Z,1.17
2018-09-15T13:03:31.409Z,2.33
2018-09-15T13:05:35.715Z,1.97
2018-09-15T13:07:40.313Z,2.47
2018-09-15T13:09:45.265Z,2.07
2018-09-15T13:11:51.730Z,4.77
2018-09-15T13:13:55.842Z,3.03
2018-09-15T13:16:01.421Z,3.20
2018-09-15T13:18:06.462Z,2.83
2018-09-15T13:20:11.410Z,2.80
2018-09-15T13:22:15.421Z,1.40
2018-09-15T13:24:20.882Z,3.57
2018-09-15T13:26:25.003Z,2.97
2018-09-15T13:28:29.025Z,1.50
2018-09-15T13:30:33.621Z,0.73
2018-09-15T13:32:37.630Z,1.97
2018-09-15T13:34:45.222Z,2.20
2018-09-15T13:36:50.532Z,3.33
2018-09-15T13:38:55.547Z,3.33
2018-09-15T13:40:59.526Z,2.37
2018-09-15T13:43:03.570Z,1.10
2018-09-15T13:45:08.282Z,0.93
2018-09-15T13:47:12.319Z,1.40
2018-09-15T13:49:17.289Z,4.10
2018-09-15T13:51:22.658Z,1.30
2018-09-15T13:53:27.660Z,2.07
2018-09-15T13:55:33.388Z,1.10
2018-09-15T13:57:38.435Z,2.70
2018-09-15T13:59:44.771Z,1.87
2018-09-15T14:01:50.941Z,2.63
2018-09-15T14:03:54.968Z,1.37
2018-09-15T14:06:00.664Z,1.30
2018-09-15T14:08:06.310Z,3.73
2018-09-15T14:10:11.791Z,1.10
2018-09-15T14:12:15.735Z,2.73
2018-09-15T14:14:23.534Z,3.27
2018-09-15T14:16:34.376Z,1.57
2018-09-15T14:18:38.362Z,2.40
2018-09-15T14:20:42.770Z,1.60
2018-09-15T14:22:47.608Z,1.97
2018-09-15T14:24:52.415Z,2.87
2018-09-15T14:26:56.474Z,4.23
2018-09-15T14:29:01.383Z,2.30
2018-09-15T14:31:06.389Z,1.33
2018-09-15T14:33:12.287Z,2.00
2018-09-15T14:35:16.360Z,2.00
2018-09-15T14:37:21.468Z,1.70
2018-09-15T14:39:26.504Z,1.90
2018-09-15T14:41:32.205Z,4.20
2018-09-15T14:43:36.830Z,2.40
2018-09-15T14:45:42.436Z,1.57
2018-09-15T14:47:46.437Z,1.90
2018-09-15T14:49:50.664Z,1.70
2018-09-15T14:51:55.685Z,1.33
2018-09-15T14:54:00.664Z,3.90
2018-09-15T14:56:05.852Z,3.20
2018-09-15T14:58:12.240Z,1.20
2018-09-15T15:00:16.672Z,1.40
2018-09-15T15:02:21.963Z,4.37
2018-09-15T15:04:26.571Z,1.87
2018-09-15T15:06:31.388Z,2.05
2018-09-15T15:08:35.426Z,1.47
2018-09-15T15:10:42.732Z,1.17
2018-09-15T15:12:47.735Z,3.30
2018-09-15T15:14:52.426Z,2.17
2018-09-15T15:16:58.468Z,4.03
2018-09-15T15:21:13.236Z,2.98
2018-09-15T15:23:17.281Z,2.77
2018-09-15T15:25:22.238Z,2.42
2018-09-15T15:27:26.225Z,2.15
2018-09-15T15:29:31.341Z,1.95
2018-09-15T15:31:37.407Z,2.47
2018-09-15T15:33:42.046Z,1.10
2018-09-15T15:35:46.022Z,2.80
2018-09-15T15:37:51.386Z,1.60
2018-09-15T15:39:57.852Z,2.33
2018-09-15T15:42:07.324Z,1.20
2018-09-15T15:44:16.299Z,2.63
2018-09-15T15:46:20.908Z,2.75
2018-09-15T15:48:25.737Z,2.17
2018-09-15T15:50:32.778Z,3.67
2018-09-15T15:52:37.600Z,2.33
2018-09-15T15:54:43.123Z,1.47
2018-09-15T15:56:49.093Z,2.33
2018-09-15T15:58:54.413Z,3.57
2018-09-15T16:00:59.389Z,2.73
2018-09-15T16:03:04.314Z,4.80
2018-09-15T16:05:09.783Z,3.20
2018-09-15T16:07:15.750Z,3.62
2018-09-15T16:09:21.570Z,2.13
2018-09-15T16:11:26.209Z,2.20
2018-09-15T16:13:36.417Z,1.90
2018-09-15T16:15:40.438Z,5.13
2018-09-15T16:17:45.323Z,2.27
2018-09-15T16:19:51.234Z,2.17
2018-09-15T16:21:55.364Z,3.20
2018-09-15T16:24:04.668Z,2.73
2018-09-15T16:26:11.255Z,3.33
2018-09-15T16:28:17.364Z,2.47
2018-09-15T16:30:42.366Z,3.47
2018-09-15T16:32:46.429Z,3.47
2018-09-15T16:34:53.066Z,3.43
2018-09-15T16:36:58.154Z,2.77
2018-09-15T16:39:06.582Z,4.03
2018-09-15T16:41:15.096Z,3.50
2018-09-15T16:43:19.667Z,3.70
2018-09-15T16:45:24.938Z,2.27
2018-09-15T16:47:29.353Z,2.10
2018-09-15T16:49:33.662Z,2.93
2018-09-15T16:51:38.465Z,3.30
2018-09-15T16:53:44.105Z,1.30
2018-09-15T16:55:48.344Z,2.97
2018-09-15T16:57:52.458Z,2.77
2018-09-15T16:59:57.054Z,3.13
2018-09-15T17:02:01.413Z,2.53
2018-09-15T17:04:08.381Z,2.73
2018-09-15T17:06:12.466Z,4.03
2018-09-15T17:08:16.505Z,3.43
2018-09-15T17:10:21.060Z,3.13
2018-09-15T17:12:25.764Z,2.47
2018-09-15T17:14:30.604Z,3.20
2018-09-15T17:16:37.023Z,1.93
2018-09-15T17:18:41.153Z,2.73
2018-09-15T17:20:46.613Z,5.53
2018-09-15T17:22:51.184Z,2.70
2018-09-15T17:24:55.191Z,2.13
2018-09-15T17:26:59.609Z,4.53
2018-09-15T17:29:04.640Z,3.37
2018-09-15T17:31:08.725Z,2.93
2018-09-15T17:33:14.232Z,3.93
2018-09-15T17:35:18.613Z,3.33
2018-09-15T17:37:23.413Z,4.47
2018-09-15T17:39:28.337Z,3.70
2018-09-15T17:41:33.649Z,3.60
2018-09-15T17:43:37.700Z,2.30
2018-09-15T17:45:43.402Z,3.57
2018-09-15T17:47:49.724Z,3.30
2018-09-15T17:49:55.368Z,5.67
2018-09-15T17:51:59.378Z,3.67
2018-09-15T17:54:03.656Z,10.40
2018-09-15T17:56:07.649Z,4.17
2018-09-15T17:58:11.669Z,4.43
2018-09-15T18:00:15.725Z,2.57
2018-09-15T18:02:21.454Z,2.90
2018-09-15T18:04:25.502Z,3.23
2018-09-15T18:06:29.821Z,2.53
2018-09-15T18:08:34.740Z,6.43
2018-09-15T18:10:41.281Z,5.03
2018-09-15T18:12:46.881Z,3.27
2018-09-15T18:14:52.679Z,4.27
2018-09-15T18:17:02.582Z,6.13
2018-09-15T18:19:09.969Z,2.80
2018-09-15T18:21:14.827Z,5.63
2018-09-15T18:23:20.284Z,3.87
2018-09-15T18:25:26.484Z,2.27
2018-09-15T18:27:31.310Z,7.00
2018-09-15T18:29:37.489Z,3.10
2018-09-15T18:31:42.543Z,4.37
2018-09-15T18:33:48.506Z,3.17
2018-09-15T18:35:54.124Z,2.93
2018-09-15T18:37:58.260Z,3.83
2018-09-15T18:40:07.964Z,3.90
2018-09-15T18:42:13.296Z,3.13
2018-09-15T18:44:17.336Z,5.10
2018-09-15T18:46:23.702Z,3.93
2018-09-15T18:48:31.347Z,4.67
2018-09-15T18:50:36.214Z,5.33
2018-09-15T18:52:45.504Z,4.23
2018-09-15T18:54:50.043Z,4.43
2018-09-15T18:56:56.808Z,4.07
2018-09-15T18:59:00.867Z,4.13
2018-09-15T19:01:07.025Z,5.23
2018-09-15T19:03:15.330Z,3.60
2018-09-15T19:05:20.326Z,7.27
2018-09-15T19:07:28.081Z,6.43
2018-09-15T19:09:33.604Z,6.30
2018-09-15T19:11:41.767Z,3.73
2018-09-15T19:13:50.644Z,4.50
2018-09-15T19:15:56.453Z,4.80
2018-09-15T19:18:01.470Z,3.63
2018-09-15T19:20:06.778Z,4.67
2018-09-15T19:22:12.377Z,2.93
2018-09-15T19:24:16.383Z,5.73
2018-09-15T19:26:22.161Z,4.90
2018-09-15T19:28:27.233Z,5.57
2018-09-15T19:30:32.213Z,8.47
2018-09-15T19:32:39.739Z,4.47
2018-09-15T19:34:46.514Z,6.27
2018-09-15T19:36:52.157Z,4.37
2018-09-15T19:38:57.321Z,6.90
2018-09-15T19:41:02.624Z,4.63
2018-09-15T19:43:06.726Z,4.60
2018-09-15T19:45:12.531Z,6.20
2018-09-15T19:47:18.221Z,4.50
2018-09-15T19:49:24.001Z,2.80
2018-09-15T19:51:33.585Z,3.67
2018-09-15T19:53:37.523Z,4.63
2018-09-15T19:55:45.229Z,6.23
2018-09-15T19:57:52.978Z,4.47
2018-09-15T19:59:57.523Z,6.33
2018-09-15T20:02:03.092Z,4.27
2018-09-15T20:04:08.547Z,3.43
2018-09-15T20:06:13.488Z,5.30
2018-09-15T20:08:19.676Z,3.87
2018-09-15T20:10:23.771Z,5.20
2018-09-15T20:12:30.442Z,3.77
2018-09-15T20:14:37.549Z,5.17
2018-09-15T20:16:40.124Z,6.27
2018-09-15T20:18:47.259Z,6.47
2018-09-15T20:20:51.417Z,5.80
2018-09-15T20:22:56.171Z,8.13
2018-09-15T20:25:03.040Z,5.70
2018-09-15T20:27:11.541Z,4.53
2018-09-15T20:29:16.632Z,3.90
2018-09-15T20:31:21.537Z,5.43
2018-09-15T20:33:25.510Z,5.10
2018-09-15T20:35:29.555Z,6.00
2018-09-15T20:37:33.549Z,6.13
2018-09-15T20:39:38.912Z,5.97
2018-09-15T20:41:43.858Z,4.33
2018-09-15T20:43:51.661Z,7.30
2018-09-15T20:45:57.280Z,4.30
2018-09-15T20:48:01.378Z,3.83
2018-09-15T20:50:05.457Z,5.47
2018-09-15T20:52:12.206Z,4.33
2018-09-15T20:54:17.741Z,7.37
2018-09-15T20:56:24.216Z,4.83
2018-09-15T20:58:30.385Z,5.33
2018-09-15T21:00:35.560Z,8.13
2018-09-15T21:02:43.421Z,5.73
2018-09-15T21:04:47.711Z,10.00
2018-09-15T21:06:55.412Z,7.63
2018-09-15T21:08:59.489Z,7.83
2018-09-15T21:11:06.951Z,6.73
2018-09-15T21:13:11.911Z,5.70
2018-09-15T21:15:18.098Z,8.40
2018-09-15T21:17:24.673Z,7.80
2018-09-15T21:19:29.508Z,8.67
2018-09-15T21:21:33.493Z,6.20
2018-09-15T21:23:44.207Z,9.50
2018-09-15T21:25:49.765Z,6.67
2018-09-15T21:27:53.814Z,6.63
2018-09-15T21:29:58.494Z,7.50
2018-09-15T21:32:03.263Z,7.03
2018-09-15T21:34:08.584Z,6.30
2018-09-15T21:36:14.140Z,6.30
2018-09-15T21:38:18.763Z,5.87
2018-09-15T21:40:23.583Z,5.47
2018-09-15T21:42:28.481Z,8.80
2018-09-15T21:44:32.530Z,4.77
2018-09-15T21:46:38.405Z,8.23
2018-09-15T21:48:42.781Z,5.27
2018-09-15T21:50:49.270Z,7.70
2018-09-15T21:52:54.521Z,8.23
2018-09-15T21:55:04.662Z,6.30
2018-09-15T21:57:09.070Z,8.27
2018-09-15T21:59:13.053Z,6.07
2018-09-15T22:01:19.169Z,6.47
2018-09-15T22:03:23.759Z,6.77
2018-09-15T22:05:28.787Z,6.20
2018-09-15T22:07:37.139Z,6.03
2018-09-15T22:09:42.017Z,8.77
2018-09-15T22:11:46.964Z,4.43
2018-09-15T22:13:52.810Z,6.23
2018-09-15T22:15:58.111Z,6.87
2018-09-15T22:18:03.234Z,6.50
2018-09-15T22:20:08.284Z,6.87
2018-09-15T22:22:13.509Z,6.47
2018-09-15T22:24:19.544Z,6.47
2018-09-15T22:26:23.578Z,4.40
2018-09-15T22:28:30.340Z,5.47
2018-09-15T22:30:35.093Z,5.20
2018-09-15T22:32:41.510Z,6.30
2018-09-15T22:34:48.081Z,5.30
2018-09-15T22:36:53.460Z,4.97
2018-09-15T22:38:58.522Z,9.93
2018-09-15T22:41:03.230Z,6.07
2018-09-15T22:43:07.945Z,7.07
2018-09-15T22:45:14.349Z,8.40
2018-09-15T22:47:19.750Z,7.93
2018-09-15T22:49:24.682Z,7.03
2018-09-15T22:51:29.933Z,8.70
2018-09-15T22:53:36.648Z,5.23
2018-09-15T22:55:41.458Z,4.43
2018-09-15T22:57:47.804Z,7.20
2018-09-15T22:59:51.796Z,4.63
2018-09-15T23:01:55.810Z,5.37
2018-09-15T23:04:05.345Z,4.73
2018-09-15T23:06:09.928Z,6.53
2018-09-15T23:08:14.572Z,7.17
2018-09-15T23:10:19.169Z,6.07
2018-09-15T23:12:23.193Z,7.30
2018-09-15T23:14:27.812Z,6.77
2018-09-15T23:16:35.802Z,4.07
2018-09-15T23:18:41.614Z,6.73
2018-09-15T23:20:46.372Z,2.97
2018-09-15T23:22:52.334Z,5.03
2018-09-15T23:24:57.386Z,8.13
2018-09-15T23:27:01.393Z,5.20
2018-09-15T23:29:06.725Z,4.80
2018-09-15T23:31:10.688Z,4.23
2018-09-15T23:33:14.715Z,6.07
2018-09-15T23:35:18.952Z,3.60
2018-09-15T23:37:24.212Z,4.53
2018-09-15T23:39:28.481Z,4.03
2018-09-15T23:41:32.853Z,4.77
2018-09-15T23:43:38.224Z,3.87
2018-09-15T23:45:43.560Z,4.57
2018-09-15T23:47:50.015Z,6.00
2018-09-15T23:49:56.254Z,5.03
2018-09-15T23:52:01.237Z,7.13
2018-09-15T23:54:06.850Z,3.97
2018-09-15T23:56:11.497Z,4.20
2018-09-15T23:58:15.497Z,4.77
